createdAt,value
2023-03-14T00:01:50.269Z,16.77
2023-03-14T00:04:17.267Z,17.63
2023-03-14T00:06:44.049Z,13.70
2023-03-14T00:09:10.789Z,16.25
2023-03-14T00:11:37.605Z,12.77
2023-03-14T00:14:04.480Z,20.35
2023-03-14T00:16:33.434Z,15.68
2023-03-14T00:19:01.028Z,16.90
2023-03-14T00:21:28.319Z,18.83
2023-03-14T00:23:55.218Z,14.35
2023-03-14T00:26:22.428Z,15.90
2023-03-14T00:28:52.495Z,18.55
2023-03-14T00:31:19.463Z,13.82
2023-03-14T00:33:46.515Z,18.33
2023-03-14T00:36:14.646Z,15.98
2023-03-14T00:38:42.370Z,19.33
2023-03-14T00:41:10.588Z,19.23
2023-03-14T00:43:37.723Z,15.35
2023-03-14T00:46:04.963Z,20.70
2023-03-14T00:48:31.846Z,25.98
2023-03-14T00:50:58.758Z,20.98
2023-03-14T00:53:25.566Z,25.75
2023-03-14T00:55:52.600Z,29.55
2023-03-14T00:58:19.777Z,20.63
2023-03-14T01:00:47.177Z,27.20
2023-03-14T01:03:15.026Z,27.25
2023-03-14T01:05:43.096Z,30.83
2023-03-14T01:08:10.360Z,20.75
2023-03-14T01:10:41.318Z,24.98
2023-03-14T01:13:08.855Z,24.38
2023-03-14T01:15:37.716Z,22.13
2023-03-14T01:18:04.817Z,25.15
2023-03-14T01:20:32.149Z,26.80
2023-03-14T01:23:06.841Z,21.50
2023-03-14T01:25:33.910Z,21.42
2023-03-14T01:28:01.820Z,24.90
2023-03-14T01:30:29.491Z,26.20
2023-03-14T01:32:56.602Z,26.13
2023-03-14T01:35:23.364Z,23.38
2023-03-14T01:37:51.193Z,16.33
2023-03-14T01:40:22.119Z,21.98
2023-03-14T01:43:22.018Z,20.95
2023-03-14T01:46:07.295Z,19.20
2023-03-14T01:48:48.631Z,16.35
2023-03-14T01:51:22.695Z,14.10
2023-03-14T01:53:50.748Z,23.02
2023-03-14T01:56:19.028Z,14.90
2023-03-14T01:58:48.054Z,15.35
2023-03-14T02:01:15.760Z,17.58
2023-03-14T02:03:54.672Z,17.23
2023-03-14T02:06:24.673Z,17.27
2023-03-14T02:08:52.408Z,18.05
2023-03-14T02:11:29.098Z,21.38
2023-03-14T02:14:47.697Z,16.85
2023-03-14T02:17:42.442Z,26.80
2023-03-14T02:20:29.526Z,19.58
2023-03-14T02:22:58.180Z,21.02
2023-03-14T02:25:34.510Z,22.48
2023-03-14T02:31:56.087Z,20.30
2023-03-14T02:34:23.229Z,25.65
2023-03-14T02:36:50.431Z,34.75
2023-03-14T02:39:41.297Z,53.63
2023-03-14T02:42:08.543Z,33.15
2023-03-14T02:44:37.239Z,28.45
2023-03-14T02:47:05.228Z,30.52
2023-03-14T02:49:33.531Z,30.35
2023-03-14T02:52:00.285Z,34.78
2023-03-14T03:00:11.154Z,36.78
2023-03-14T03:03:44.749Z,34.78
2023-03-14T03:06:12.687Z,37.03
2023-03-14T03:08:39.569Z,26.83
2023-03-14T03:11:06.685Z,28.13
2023-03-14T03:18:03.294Z,26.63
2023-03-14T03:20:30.031Z,29.52
2023-03-14T03:22:56.828Z,26.13
2023-03-14T03:25:23.664Z,21.58
2023-03-14T03:27:50.538Z,24.48
2023-03-14T03:30:18.756Z,24.33
2023-03-14T03:32:45.881Z,29.30
2023-03-14T03:35:13.224Z,22.25
2023-03-14T03:41:34.493Z,20.30
2023-03-14T03:44:02.262Z,22.25
2023-03-14T03:46:29.405Z,23.40
2023-03-14T03:48:56.886Z,23.00
2023-03-14T03:51:23.662Z,20.00
2023-03-14T03:53:50.593Z,24.35
2023-03-14T03:56:29.486Z,20.83
2023-03-14T04:03:57.785Z,21.20
2023-03-14T04:06:25.850Z,26.13
2023-03-14T04:08:55.322Z,23.75
2023-03-14T04:11:37.074Z,25.17
2023-03-14T04:14:24.743Z,21.88
2023-03-14T04:17:02.486Z,22.40
2023-03-14T04:19:30.351Z,25.20
2023-03-14T04:21:57.163Z,30.52
2023-03-14T04:24:26.703Z,23.67
2023-03-14T04:26:55.112Z,22.70
2023-03-14T04:29:21.923Z,18.90
2023-03-14T04:31:49.198Z,24.20
2023-03-14T04:34:16.770Z,27.02
2023-03-14T04:36:49.485Z,25.25
2023-03-14T04:39:20.980Z,24.38
2023-03-14T04:42:03.088Z,16.92
2023-03-14T04:44:29.928Z,32.58
2023-03-14T04:46:57.591Z,23.27
2023-03-14T04:49:25.377Z,25.23
2023-03-14T04:51:52.233Z,27.52
2023-03-14T04:54:20.653Z,18.83
2023-03-14T04:56:52.076Z,31.00
2023-03-14T04:59:18.945Z,23.40
2023-03-14T05:01:46.573Z,28.98
2023-03-14T05:04:23.877Z,27.15
2023-03-14T05:07:29.230Z,34.22
2023-03-14T05:10:11.013Z,32.15
2023-03-14T05:13:07.747Z,33.42
2023-03-14T05:16:10.509Z,31.77
2023-03-14T05:18:43.291Z,36.83
2023-03-14T05:21:36.041Z,34.15
2023-03-14T05:24:10.474Z,30.55
2023-03-14T05:26:55.546Z,38.33
2023-03-14T05:29:28.767Z,31.73
2023-03-14T05:32:04.789Z,32.33
2023-03-14T05:34:59.873Z,35.50
2023-03-14T05:37:52.776Z,34.03
2023-03-14T05:40:39.874Z,34.88
2023-03-14T05:43:17.108Z,34.33
2023-03-14T05:46:02.168Z,35.17
2023-03-14T05:48:31.499Z,36.88
2023-03-14T05:51:17.482Z,28.90
2023-03-14T05:53:50.102Z,35.50
2023-03-14T05:56:43.516Z,32.20
2023-03-14T05:59:36.720Z,33.72
2023-03-14T06:02:23.659Z,36.97
2023-03-14T06:04:59.501Z,34.38
2023-03-14T06:07:26.227Z,32.63
2023-03-14T06:09:53.179Z,37.33
2023-03-14T06:12:20.228Z,35.72
2023-03-14T06:14:47.242Z,43.88
2023-03-14T06:17:14.577Z,50.42
2023-03-14T06:19:51.215Z,52.50
2023-03-14T06:22:18.066Z,48.30
2023-03-14T06:24:46.279Z,45.85
2023-03-14T06:27:16.682Z,45.58
2023-03-14T06:29:43.332Z,50.90
2023-03-14T06:32:10.206Z,45.10
2023-03-14T06:34:39.531Z,43.75
2023-03-14T06:37:06.810Z,45.90
2023-03-14T06:39:33.697Z,45.45
2023-03-14T06:42:06.709Z,43.33
2023-03-14T06:44:36.703Z,44.28
2023-03-14T06:47:04.726Z,45.88
2023-03-14T06:49:32.243Z,39.78
2023-03-14T06:52:10.958Z,43.55
2023-03-14T06:54:46.241Z,40.25
2023-03-14T07:00:03.264Z,35.20
2023-03-14T07:02:42.599Z,41.08
2023-03-14T07:05:25.314Z,45.75
2023-03-14T07:07:57.688Z,33.90
2023-03-14T07:10:24.984Z,39.70
2023-03-14T07:13:02.500Z,34.70
2023-03-14T07:15:36.609Z,35.53
2023-03-14T07:18:24.762Z,38.67
2023-03-14T07:20:54.367Z,40.25
2023-03-14T07:23:21.353Z,37.88
2023-03-14T07:25:54.300Z,36.38
2023-03-14T07:28:29.274Z,37.03
2023-03-14T07:31:02.536Z,31.63
2023-03-14T07:33:34.564Z,32.25
2023-03-14T07:36:08.419Z,34.90
2023-03-14T07:38:49.860Z,39.22
2023-03-14T07:41:36.149Z,30.85
2023-03-14T07:44:31.318Z,29.90
2023-03-14T07:46:59.617Z,29.25
2023-03-14T07:49:30.306Z,28.20
2023-03-14T07:51:58.447Z,29.83
2023-03-14T07:54:28.334Z,38.60
2023-03-14T07:57:05.938Z,35.38
2023-03-14T07:59:35.592Z,30.30
2023-03-14T08:02:08.803Z,26.27
2023-03-14T08:04:35.487Z,33.38
2023-03-14T08:07:10.442Z,25.77
2023-03-14T08:09:42.159Z,24.17
2023-03-14T08:12:17.590Z,23.55
2023-03-14T08:14:51.491Z,25.95
2023-03-14T08:17:24.318Z,22.45
2023-03-14T08:20:05.231Z,25.70
2023-03-14T08:22:40.124Z,25.23
2023-03-14T08:25:09.512Z,25.98
2023-03-14T08:27:39.837Z,19.65
2023-03-14T08:30:12.477Z,23.67
2023-03-14T08:32:41.798Z,19.13
2023-03-14T08:35:12.495Z,17.08
2023-03-14T08:37:44.985Z,17.00
2023-03-14T08:40:12.915Z,17.42
2023-03-14T08:42:43.372Z,16.83
2023-03-14T08:45:15.671Z,17.00
2023-03-14T08:47:42.417Z,17.30
2023-03-14T08:50:16.027Z,18.02
2023-03-14T08:52:46.112Z,19.42
2023-03-14T08:55:13.543Z,20.77
2023-03-14T08:57:40.853Z,26.88
2023-03-14T09:00:15.311Z,23.38
2023-03-14T09:02:45.381Z,24.38
2023-03-14T09:05:14.956Z,24.80
2023-03-14T09:07:44.405Z,25.08
2023-03-14T09:10:12.075Z,26.55
2023-03-14T09:12:38.788Z,28.23
2023-03-14T09:15:06.397Z,28.05
2023-03-14T09:17:36.184Z,28.38
2023-03-14T09:20:07.820Z,27.02
2023-03-14T09:22:37.744Z,24.90
2023-03-14T09:25:08.138Z,31.67
2023-03-14T09:27:37.913Z,27.25
2023-03-14T09:30:05.088Z,26.02
2023-03-14T09:32:33.187Z,34.05
2023-03-14T09:35:01.668Z,29.88
2023-03-14T09:37:28.551Z,32.88
2023-03-14T09:39:55.421Z,30.92
2023-03-14T09:42:27.612Z,30.75
2023-03-14T09:45:02.313Z,32.38
2023-03-14T09:47:30.613Z,28.25
2023-03-14T09:49:57.557Z,27.65
2023-03-14T09:52:34.605Z,26.85
2023-03-14T09:55:07.270Z,29.15
2023-03-14T09:57:35.528Z,29.67
2023-03-14T10:00:15.494Z,31.70
2023-03-14T10:02:56.729Z,24.73
2023-03-14T10:05:29.879Z,27.33
2023-03-14T10:08:03.621Z,31.37
2023-03-14T10:13:16.312Z,29.48
2023-03-14T10:15:47.735Z,25.73
2023-03-14T10:18:15.593Z,32.17
2023-03-14T10:20:44.769Z,29.73
2023-03-14T10:23:14.680Z,25.05
2023-03-14T10:25:43.218Z,33.28
2023-03-14T10:28:36.328Z,29.63
2023-03-14T10:31:03.095Z,25.40
2023-03-14T10:33:31.608Z,26.80
2023-03-14T10:35:58.416Z,32.00
2023-03-14T10:38:27.449Z,27.90
2023-03-14T10:40:55.224Z,28.42
2023-03-14T10:43:28.261Z,30.88
2023-03-14T10:45:59.252Z,28.50
2023-03-14T10:48:31.347Z,43.72
2023-03-14T10:51:01.167Z,28.00
2023-03-14T10:53:27.991Z,33.35
2023-03-14T10:55:56.890Z,24.35
2023-03-14T10:58:27.915Z,20.42
2023-03-14T11:01:17.397Z,24.65
2023-03-14T11:03:48.457Z,32.70
2023-03-14T11:06:21.998Z,26.65
2023-03-14T11:08:57.347Z,22.63
2023-03-14T11:11:26.445Z,27.85
2023-03-14T11:14:12.559Z,32.30
2023-03-14T11:16:49.477Z,29.48
2023-03-14T11:19:34.437Z,27.65
2023-03-14T11:22:21.437Z,28.50
2023-03-14T11:24:51.186Z,27.85
2023-03-14T11:27:19.420Z,17.50
2023-03-14T11:29:46.196Z,31.23
2023-03-14T11:32:24.273Z,26.48
2023-03-14T11:34:50.954Z,47.53
2023-03-14T11:37:24.043Z,59.08
2023-03-14T11:40:14.129Z,24.65
2023-03-14T11:42:43.289Z,27.52
2023-03-14T11:45:21.074Z,23.35
2023-03-14T11:47:52.055Z,20.05
2023-03-14T11:50:22.185Z,17.45
2023-03-14T11:52:54.686Z,29.15
2023-03-14T11:55:27.241Z,40.97
2023-03-14T11:57:56.891Z,19.00
2023-03-14T12:00:24.735Z,19.85
2023-03-14T12:02:52.099Z,23.35
2023-03-14T12:05:42.184Z,20.85
2023-03-14T12:08:09.417Z,27.77
2023-03-14T12:10:47.369Z,23.38
2023-03-14T12:13:15.172Z,25.50
2023-03-14T12:15:47.309Z,30.27
2023-03-14T12:18:40.600Z,20.05
2023-03-14T12:21:08.696Z,33.72
2023-03-14T12:23:38.182Z,15.20
2023-03-14T12:26:14.008Z,19.95
2023-03-14T12:28:44.509Z,23.40
2023-03-14T12:31:37.773Z,33.17
2023-03-14T12:34:10.403Z,24.43
2023-03-14T12:36:52.353Z,24.70
2023-03-14T12:39:23.599Z,16.80
2023-03-14T12:42:00.841Z,21.92
2023-03-14T12:44:30.602Z,19.63
2023-03-14T12:47:00.564Z,19.00
2023-03-14T12:49:31.339Z,23.13
2023-03-14T12:52:01.939Z,21.98
2023-03-14T12:54:47.355Z,17.27
2023-03-14T12:57:23.891Z,16.70
2023-03-14T12:59:51.464Z,16.83
2023-03-14T13:02:24.658Z,18.10
2023-03-14T13:04:53.827Z,20.40
2023-03-14T13:07:32.694Z,13.73
2023-03-14T13:12:38.442Z,20.60
2023-03-14T13:15:14.386Z,16.55
2023-03-14T13:17:41.293Z,17.92
2023-03-14T13:20:13.996Z,19.70
2023-03-14T13:22:46.521Z,10.87
2023-03-14T13:25:13.253Z,12.48
2023-03-14T13:27:41.519Z,13.38
2023-03-14T13:30:16.698Z,18.90
2023-03-14T13:32:45.323Z,15.32
2023-03-14T13:35:28.505Z,10.60
2023-03-14T13:38:12.493Z,15.90
2023-03-14T13:40:39.678Z,17.98
2023-03-14T13:43:13.518Z,13.32
2023-03-14T13:46:03.089Z,21.58
2023-03-14T13:48:31.007Z,13.80
2023-03-14T13:51:00.711Z,17.90
2023-03-14T13:53:27.606Z,12.57
2023-03-14T13:55:54.763Z,19.85
2023-03-14T13:58:31.817Z,15.15
2023-03-14T14:01:22.016Z,16.17
2023-03-14T14:03:52.128Z,13.82
2023-03-14T14:06:38.531Z,31.08
2023-03-14T14:09:11.595Z,12.98
2023-03-14T14:11:46.825Z,23.40
2023-03-14T14:14:22.841Z,22.45
2023-03-14T14:16:52.417Z,16.50
2023-03-14T14:19:21.419Z,21.15
2023-03-14T14:21:48.474Z,18.40
2023-03-14T14:24:17.011Z,17.20
2023-03-14T14:26:54.162Z,16.95
2023-03-14T14:29:36.588Z,17.30
2023-03-14T14:32:09.586Z,20.05
2023-03-14T14:34:43.021Z,21.38
2023-03-14T14:39:54.724Z,17.23
2023-03-14T14:42:33.374Z,27.48
2023-03-14T14:45:13.932Z,20.10
2023-03-14T14:48:12.674Z,19.98
2023-03-14T14:50:42.695Z,16.80
2023-03-14T14:53:28.435Z,14.00
2023-03-14T14:56:23.695Z,28.05
2023-03-14T14:59:05.051Z,32.97
2023-03-14T15:01:42.314Z,14.63
2023-03-14T15:04:18.315Z,18.23
2023-03-14T15:09:31.141Z,15.55
2023-03-14T15:12:11.183Z,19.45
2023-03-14T15:14:42.361Z,20.95
2023-03-14T15:17:23.853Z,18.45
2023-03-14T15:19:51.577Z,16.45
2023-03-14T15:22:20.131Z,25.02
2023-03-14T15:24:59.517Z,20.27
2023-03-14T15:27:30.098Z,27.95
2023-03-14T15:30:12.059Z,23.25
2023-03-14T15:32:44.823Z,32.30
2023-03-14T15:35:22.936Z,25.85
2023-03-14T15:38:01.568Z,20.63
2023-03-14T15:40:30.814Z,22.00
2023-03-14T15:43:05.945Z,18.33
2023-03-14T15:45:36.874Z,17.58
2023-03-14T15:48:07.474Z,17.00
2023-03-14T15:50:40.257Z,22.75
2023-03-14T15:53:12.997Z,24.67
2023-03-14T15:55:50.864Z,22.10
2023-03-14T15:58:22.396Z,31.42
2023-03-14T16:01:04.276Z,28.60
2023-03-14T16:03:37.219Z,28.45
2023-03-14T16:06:07.556Z,29.05
2023-03-14T16:08:42.533Z,20.67
2023-03-14T16:14:15.791Z,30.92
2023-03-14T16:16:57.020Z,37.85
2023-03-14T16:19:32.147Z,26.48
2023-03-14T16:22:02.324Z,42.45
2023-03-14T16:27:41.873Z,28.08
2023-03-14T16:30:14.042Z,43.78
2023-03-14T16:32:44.015Z,36.00
2023-03-14T16:35:16.742Z,26.92
2023-03-14T16:37:50.390Z,40.63
2023-03-14T16:40:22.836Z,29.55
2023-03-14T16:43:15.364Z,44.08
2023-03-14T16:45:48.371Z,37.95
2023-03-14T16:48:21.008Z,33.90
2023-03-14T16:50:50.396Z,41.65
2023-03-14T16:53:23.085Z,27.88
2023-03-14T16:55:56.619Z,31.95
2023-03-14T16:58:26.733Z,36.22
2023-03-14T17:00:58.465Z,33.28
2023-03-14T17:03:27.928Z,36.53
2023-03-14T17:06:03.751Z,43.45
2023-03-14T17:08:32.904Z,35.78
2023-03-14T17:11:02.188Z,37.10
2023-03-14T17:13:32.651Z,40.95
2023-03-14T17:16:02.870Z,39.05
2023-03-14T17:18:33.963Z,47.42
2023-03-14T17:21:09.834Z,39.13
2023-03-14T17:23:46.695Z,37.10
2023-03-14T17:26:19.896Z,41.97
2023-03-14T17:28:49.707Z,43.40
2023-03-14T17:31:24.935Z,57.97
2023-03-14T17:33:55.244Z,45.17
2023-03-14T17:36:35.114Z,44.28
2023-03-14T17:39:04.532Z,57.20
2023-03-14T17:41:36.895Z,67.63
2023-03-14T17:44:09.964Z,61.42
2023-03-14T17:46:38.831Z,52.15
2023-03-14T17:49:16.115Z,55.63
2023-03-14T17:51:48.820Z,49.92
2023-03-14T17:54:23.902Z,50.13
2023-03-14T17:56:59.553Z,49.40
2023-03-14T17:59:33.544Z,49.95
2023-03-14T18:02:03.276Z,49.90
2023-03-14T18:04:33.271Z,48.92
2023-03-14T18:07:11.651Z,48.13
2023-03-14T18:09:40.297Z,44.90
2023-03-14T18:12:35.699Z,46.67
2023-03-14T18:15:27.390Z,47.67
2023-03-14T18:17:55.061Z,47.00
2023-03-14T18:20:24.501Z,47.03
2023-03-14T18:23:02.426Z,50.20
2023-03-14T18:25:29.368Z,48.53
2023-03-14T18:27:56.758Z,48.80
2023-03-14T18:30:23.970Z,48.60
2023-03-14T18:32:51.495Z,46.03
2023-03-14T18:35:18.779Z,50.17
2023-03-14T18:37:46.307Z,42.33
2023-03-14T18:40:16.866Z,38.97
2023-03-14T18:42:46.802Z,35.30
2023-03-14T18:45:13.671Z,38.30
2023-03-14T18:47:40.764Z,42.63
2023-03-14T18:50:17.123Z,44.30
2023-03-14T18:52:44.170Z,36.47
2023-03-14T18:55:12.138Z,37.65
2023-03-14T18:57:39.337Z,30.77
2023-03-14T19:00:07.297Z,33.75
2023-03-14T19:02:34.709Z,35.80
2023-03-14T19:05:01.761Z,29.15
2023-03-14T19:07:29.060Z,28.15
2023-03-14T19:09:56.123Z,29.08
2023-03-14T19:12:23.427Z,27.15
2023-03-14T19:14:52.010Z,22.98
2023-03-14T19:17:19.398Z,21.80
2023-03-14T19:19:51.922Z,26.17
2023-03-14T19:22:22.580Z,19.30
2023-03-14T19:24:49.757Z,20.80
2023-03-14T19:27:21.538Z,51.45
2023-03-14T19:29:49.218Z,40.80
2023-03-14T19:32:18.295Z,31.63
2023-03-14T19:34:45.295Z,33.53
2023-03-14T19:37:15.991Z,45.20
2023-03-14T19:39:45.833Z,24.48
2023-03-14T19:42:15.981Z,19.77
2023-03-14T19:44:42.966Z,21.30
2023-03-14T19:47:09.883Z,20.05
2023-03-14T19:49:41.662Z,17.17
2023-03-14T19:52:08.886Z,18.80
2023-03-14T19:54:38.624Z,22.27
2023-03-14T19:57:06.127Z,19.00
2023-03-14T19:59:33.176Z,19.60
2023-03-14T20:02:02.586Z,23.02
2023-03-14T20:04:33.878Z,21.23
2023-03-14T20:07:05.588Z,16.45
2023-03-14T20:09:32.777Z,21.70
2023-03-14T20:11:59.857Z,17.35
2023-03-14T20:14:29.253Z,29.67
2023-03-14T20:16:56.352Z,21.95
2023-03-14T20:19:24.467Z,21.25
2023-03-14T20:21:53.688Z,28.98
2023-03-14T20:24:22.021Z,25.48
2023-03-14T20:26:54.163Z,25.67
2023-03-14T20:29:22.119Z,26.48
2023-03-14T20:31:48.960Z,26.63
2023-03-14T20:34:16.368Z,21.50
2023-03-14T20:36:45.027Z,21.85
2023-03-14T20:39:14.206Z,23.00
2023-03-14T20:41:42.385Z,33.78
2023-03-14T20:44:12.306Z,26.77
2023-03-14T20:46:39.965Z,22.60
2023-03-14T20:49:07.457Z,20.13
2023-03-14T20:51:34.908Z,20.40
2023-03-14T20:54:01.795Z,20.75
2023-03-14T20:56:28.959Z,20.08
2023-03-14T20:58:56.099Z,25.85
2023-03-14T21:01:23.308Z,17.77
2023-03-14T21:03:50.614Z,17.80
2023-03-14T21:06:17.598Z,15.23
2023-03-14T21:08:49.654Z,16.00
2023-03-14T21:11:16.639Z,13.90
2023-03-14T21:13:44.097Z,14.88
2023-03-14T21:16:14.460Z,15.98
2023-03-14T21:19:04.804Z,18.58
2023-03-14T21:21:32.226Z,20.05
2023-03-14T21:23:59.468Z,18.58
2023-03-14T21:26:26.439Z,14.32
2023-03-14T21:28:53.450Z,14.05
2023-03-14T21:31:27.939Z,19.42
2023-03-14T21:33:56.258Z,15.82
2023-03-14T21:36:23.726Z,18.17
2023-03-14T21:38:50.985Z,13.75
2023-03-14T21:41:20.608Z,14.57
2023-03-14T21:43:47.777Z,14.35
2023-03-14T21:46:14.973Z,13.77
2023-03-14T21:48:42.013Z,18.15
2023-03-14T21:51:08.952Z,14.45
2023-03-14T21:53:35.992Z,15.70
2023-03-14T21:56:03.429Z,25.45
2023-03-14T21:58:30.975Z,13.45
2023-03-14T22:01:04.420Z,16.27
2023-03-14T22:03:34.173Z,16.90
2023-03-14T22:06:01.961Z,13.80
2023-03-14T22:08:29.416Z,13.63
2023-03-14T22:10:57.114Z,15.80
2023-03-14T22:13:24.830Z,12.55
2023-03-14T22:15:52.548Z,13.48
2023-03-14T22:18:19.678Z,13.52
2023-03-14T22:20:49.778Z,13.30
2023-03-14T22:23:19.041Z,12.40
2023-03-14T22:25:47.089Z,12.38
2023-03-14T22:28:14.211Z,13.10
2023-03-14T22:30:41.086Z,14.02
2023-03-14T22:33:08.840Z,17.77
2023-03-14T22:35:36.354Z,16.48
2023-03-14T22:38:03.457Z,24.15
2023-03-14T22:40:30.434Z,21.42
2023-03-14T22:42:57.367Z,18.63
2023-03-14T22:45:24.615Z,19.33
2023-03-14T22:47:51.463Z,19.48
2023-03-14T22:50:18.429Z,19.33
2023-03-14T22:52:45.725Z,20.08
2023-03-14T22:55:12.761Z,18.58
2023-03-14T22:57:41.401Z,17.60
2023-03-14T23:00:13.096Z,18.83
2023-03-14T23:02:40.772Z,21.10
2023-03-14T23:05:08.088Z,21.05
2023-03-14T23:07:35.217Z,20.70
2023-03-14T23:10:02.181Z,19.58
2023-03-14T23:12:30.332Z,20.80
2023-03-14T23:14:57.214Z,17.85
2023-03-14T23:17:25.594Z,15.55
2023-03-14T23:19:53.570Z,18.20
2023-03-14T23:22:20.703Z,15.20
2023-03-14T23:24:48.883Z,15.18
2023-03-14T23:27:16.888Z,16.77
2023-03-14T23:29:46.450Z,15.25
2023-03-14T23:32:15.596Z,19.67
2023-03-14T23:34:43.364Z,15.57
2023-03-14T23:37:14.135Z,15.00
2023-03-14T23:39:44.504Z,13.50
2023-03-14T23:42:11.549Z,14.75
2023-03-14T23:44:38.561Z,14.48
2023-03-14T23:47:05.642Z,14.57
2023-03-14T23:49:32.771Z,13.02
2023-03-14T23:51:59.658Z,12.13
2023-03-14T23:54:27.669Z,12.93
2023-03-14T23:56:54.564Z,11.77
2023-03-14T23:59:21.576Z,11.02
